sensor_id;sensor_type;location;lat;lon;timestamp;pressure;altitude;pressure_sealevel;temperature;humidity
50250;BME280;36133;42.522;27.456;2023-05-03T00:01:29;102050.44;;;15.27;62.82
50250;BME280;36133;42.522;27.456;2023-05-03T00:03:54;101709.31;;;12.82;64.12
50250;BME280;36133;42.522;27.456;2023-05-03T00:06:20;102034.25;;;14.95;63.13
50250;BME280;36133;42.522;27.456;2023-05-03T00:08:49;102043.56;;;15.16;62.98
50250;BME280;36133;42.522;27.456;2023-05-03T00:11:18;101810.59;;;13.74;63.62
50250;BME280;36133;42.522;27.456;2023-05-03T00:13:43;101846.13;;;14.10;62.64
50250;BME280;36133;42.522;27.456;2023-05-03T00:16:09;101748.25;;;13.43;62.99
50250;BME280;36133;42.522;27.456;2023-05-03T00:18:34;101966.66;;;14.32;64.33
50250;BME280;36133;42.522;27.456;2023-05-03T00:21:00;102036.28;;;14.79;63.80
50250;BME280;36133;42.522;27.456;2023-05-03T00:23:26;101840.38;;;13.36;63.48
50250;BME280;36133;42.522;27.456;2023-05-03T00:25:56;102035.69;;;14.37;64.21
50250;BME280;36133;42.522;27.456;2023-05-03T00:28:23;101742.47;;;12.53;63.71
50250;BME280;36133;42.522;27.456;2023-05-03T00:30:49;102050.34;;;14.28;63.64
50250;BME280;36133;42.522;27.456;2023-05-03T00:33:15;102050.13;;;14.46;62.84
50250;BME280;36133;42.522;27.456;2023-05-03T00:35:41;101996.28;;;14.19;61.87
50250;BME280;36133;42.522;27.456;2023-05-03T00:38:07;102057.34;;;14.77;61.59
50250;BME280;36133;42.522;27.456;2023-05-03T00:40:32;101980.22;;;13.78;62.19
50250;BME280;36133;42.522;27.456;2023-05-03T00:42:58;102062.47;;;13.87;62.74
50250;BME280;36133;42.522;27.456;2023-05-03T00:45:23;101996.75;;;13.21;63.73
50250;BME280;36133;42.522;27.456;2023-05-03T00:47:49;101970.22;;;13.47;61.72
50250;BME280;36133;42.522;27.456;2023-05-03T00:50:15;101887.97;;;13.00;61.27
50250;BME280;36133;42.522;27.456;2023-05-03T00:52:41;101986.28;;;13.57;60.76
50250;BME280;36133;42.522;27.456;2023-05-03T00:55:07;102038.41;;;13.84;61.20
50250;BME280;36133;42.522;27.456;2023-05-03T00:57:34;101977.72;;;13.29;62.17
50250;BME280;36133;42.522;27.456;2023-05-03T00:59:59;101842.06;;;12.35;62.25
50250;BME280;36133;42.522;27.456;2023-05-03T01:02:26;101999.94;;;14.03;60.21
50250;BME280;36133;42.522;27.456;2023-05-03T01:04:55;102023.03;;;14.30;59.70
50250;BME280;36133;42.522;27.456;2023-05-03T01:12:45;102037.88;;;14.88;58.15
50250;BME280;36133;42.522;27.456;2023-05-03T01:15:23;102042.41;;;14.95;57.53
50250;BME280;36133;42.522;27.456;2023-05-03T01:17:54;102044.34;;;14.87;57.08
50250;BME280;36133;42.522;27.456;2023-05-03T01:20:22;101989.56;;;14.06;59.00
50250;BME280;36133;42.522;27.456;2023-05-03T01:25:24;101847.81;;;13.88;57.62
50250;BME280;36133;42.522;27.456;2023-05-03T01:27:56;102050.28;;;14.90;57.76
50250;BME280;36133;42.522;27.456;2023-05-03T01:30:26;102029.66;;;14.96;57.54
50250;BME280;36133;42.522;27.456;2023-05-03T01:33:09;102021.69;;;14.94;57.11
50250;BME280;36133;42.522;27.456;2023-05-03T01:35:43;101943.13;;;14.39;57.51
50250;BME280;36133;42.522;27.456;2023-05-03T01:38:12;102033.03;;;14.98;56.71
50250;BME280;36133;42.522;27.456;2023-05-03T01:40:53;101984.34;;;14.51;57.21
50250;BME280;36133;42.522;27.456;2023-05-03T01:43:20;102010.38;;;14.68;56.83
50250;BME280;36133;42.522;27.456;2023-05-03T01:45:47;102024.50;;;14.63;57.52
50250;BME280;36133;42.522;27.456;2023-05-03T01:48:15;102038.75;;;14.65;58.04
50250;BME280;36133;42.522;27.456;2023-05-03T01:50:41;101988.81;;;14.44;57.53
50250;BME280;36133;42.522;27.456;2023-05-03T01:53:07;101930.16;;;14.03;57.54
50250;BME280;36133;42.522;27.456;2023-05-03T01:55:32;101931.00;;;14.04;57.73
50250;BME280;36133;42.522;27.456;2023-05-03T01:57:58;101938.50;;;13.48;60.95
50250;BME280;36133;42.522;27.456;2023-05-03T02:00:24;101913.94;;;13.41;62.08
50250;BME280;36133;42.522;27.456;2023-05-03T02:02:49;101804.31;;;12.88;62.43
50250;BME280;36133;42.522;27.456;2023-05-03T02:05:15;101895.38;;;13.84;60.58
50250;BME280;36133;42.522;27.456;2023-05-03T02:07:40;101629.66;;;12.37;61.17
50250;BME280;36133;42.522;27.456;2023-05-03T02:10:07;102025.16;;;14.43;61.77
50250;BME280;36133;42.522;27.456;2023-05-03T02:12:33;101928.88;;;13.68;62.68
50250;BME280;36133;42.522;27.456;2023-05-03T02:14:58;101622.25;;;12.23;61.81
50250;BME280;36133;42.522;27.456;2023-05-03T02:17:24;102012.66;;;14.02;63.27
50250;BME280;36133;42.522;27.456;2023-05-03T02:19:53;101893.88;;;13.03;63.78
50250;BME280;36133;42.522;27.456;2023-05-03T02:22:19;101983.13;;;13.76;63.66
50250;BME280;36133;42.522;27.456;2023-05-03T02:24:45;101885.72;;;13.19;63.36
50250;BME280;36133;42.522;27.456;2023-05-03T02:27:11;101920.69;;;13.76;61.98
50250;BME280;36133;42.522;27.456;2023-05-03T02:29:37;101664.50;;;11.85;63.09
50250;BME280;36133;42.522;27.456;2023-05-03T02:32:02;101660.38;;;12.13;62.17
50250;BME280;36133;42.522;27.456;2023-05-03T02:34:31;101937.84;;;14.00;61.74
50250;BME280;36133;42.522;27.456;2023-05-03T02:36:57;101961.75;;;14.27;61.35
50250;BME280;36133;42.522;27.456;2023-05-03T02:39:23;102000.66;;;14.51;60.96
50250;BME280;36133;42.522;27.456;2023-05-03T02:41:48;102001.22;;;14.99;59.10
50250;BME280;36133;42.522;27.456;2023-05-03T02:44:17;101913.22;;;14.24;60.09
50250;BME280;36133;42.522;27.456;2023-05-03T02:46:42;101985.00;;;14.53;60.12
50250;BME280;36133;42.522;27.456;2023-05-03T02:49:08;101909.13;;;13.21;63.55
50250;BME280;36133;42.522;27.456;2023-05-03T02:51:34;102003.03;;;14.54;61.45
50250;BME280;36133;42.522;27.456;2023-05-03T02:53:59;101978.34;;;14.32;63.07
50250;BME280;36133;42.522;27.456;2023-05-03T02:56:25;102012.59;;;14.64;63.17
50250;BME280;36133;42.522;27.456;2023-05-03T02:58:51;101819.94;;;12.86;65.75
50250;BME280;36133;42.522;27.456;2023-05-03T03:01:17;102029.69;;;14.73;64.21
50250;BME280;36133;42.522;27.456;2023-05-03T03:03:43;101747.50;;;12.95;64.42
50250;BME280;36133;42.522;27.456;2023-05-03T03:06:08;102022.28;;;15.05;63.02
50250;BME280;36133;42.522;27.456;2023-05-03T03:08:35;101930.44;;;14.92;61.67
50250;BME280;36133;42.522;27.456;2023-05-03T03:11:01;101993.56;;;15.02;62.06
50250;BME280;36133;42.522;27.456;2023-05-03T03:13:28;101960.81;;;14.95;61.20
50250;BME280;36133;42.522;27.456;2023-05-03T03:15:53;101882.53;;;14.16;62.44
50250;BME280;36133;42.522;27.456;2023-05-03T03:18:19;102013.94;;;15.21;61.98
50250;BME280;36133;42.522;27.456;2023-05-03T03:20:44;101892.53;;;14.61;61.87
50250;BME280;36133;42.522;27.456;2023-05-03T03:23:10;101988.97;;;15.17;61.25
50250;BME280;36133;42.522;27.456;2023-05-03T03:25:35;101956.03;;;14.83;61.98
50250;BME280;36133;42.522;27.456;2023-05-03T03:28:01;102015.22;;;15.84;60.96
50250;BME280;36133;42.522;27.456;2023-05-03T03:30:26;101863.72;;;15.25;59.90
50250;BME280;36133;42.522;27.456;2023-05-03T03:32:52;101983.38;;;16.42;58.64
50250;BME280;36133;42.522;27.456;2023-05-03T03:35:18;101934.72;;;15.45;60.29
50250;BME280;36133;42.522;27.456;2023-05-03T03:37:44;102046.84;;;16.72;58.92
50250;BME280;36133;42.522;27.456;2023-05-03T03:40:10;101940.91;;;16.54;57.52
50250;BME280;36133;42.522;27.456;2023-05-03T03:42:35;102042.63;;;17.25;57.21
50250;BME280;36133;42.522;27.456;2023-05-03T03:45:01;102043.06;;;16.73;58.22
50250;BME280;36133;42.522;27.456;2023-05-03T03:47:27;101985.00;;;16.15;58.83
50250;BME280;36133;42.522;27.456;2023-05-03T03:49:52;101818.44;;;15.18;58.31
50250;BME280;36133;42.522;27.456;2023-05-03T03:52:18;101913.81;;;15.82;58.26
50250;BME280;36133;42.522;27.456;2023-05-03T03:54:43;102002.09;;;16.24;58.34
50250;BME280;36133;42.522;27.456;2023-05-03T03:57:09;101988.47;;;16.09;58.14
50250;BME280;36133;42.522;27.456;2023-05-03T03:59:35;102038.31;;;16.60;57.77
50250;BME280;36133;42.522;27.456;2023-05-03T04:02:00;102058.38;;;16.17;59.35
50250;BME280;36133;42.522;27.456;2023-05-03T04:04:26;101747.44;;;14.32;58.82
50250;BME280;36133;42.522;27.456;2023-05-03T04:06:52;102071.50;;;16.28;58.79
50250;BME280;36133;42.522;27.456;2023-05-03T04:09:17;101947.97;;;15.19;59.81
50250;BME280;36133;42.522;27.456;2023-05-03T04:11:44;101956.72;;;15.29;59.37
50250;BME280;36133;42.522;27.456;2023-05-03T04:14:10;102066.38;;;15.30;61.04
50250;BME280;36133;42.522;27.456;2023-05-03T04:16:35;101937.84;;;15.42;59.06
50250;BME280;36133;42.522;27.456;2023-05-03T04:19:01;101963.38;;;16.35;58.12
50250;BME280;36133;42.522;27.456;2023-05-03T04:21:27;101936.09;;;15.71;58.92
50250;BME280;36133;42.522;27.456;2023-05-03T04:23:53;101976.59;;;15.95;59.46
50250;BME280;36133;42.522;27.456;2023-05-03T04:26:19;102050.03;;;17.04;58.43
50250;BME280;36133;42.522;27.456;2023-05-03T04:28:46;102063.63;;;17.25;58.34
50250;BME280;36133;42.522;27.456;2023-05-03T04:31:12;102055.59;;;17.45;57.61
50250;BME280;36133;42.522;27.456;2023-05-03T04:33:39;101812.25;;;16.09;57.37
50250;BME280;36133;42.522;27.456;2023-05-03T04:36:07;102026.06;;;17.68;57.31
50250;BME280;36133;42.522;27.456;2023-05-03T04:38:33;101829.97;;;16.55;56.71
50250;BME280;36133;42.522;27.456;2023-05-03T04:40:59;102043.63;;;18.41;56.06
50250;BME280;36133;42.522;27.456;2023-05-03T04:43:25;102053.38;;;19.03;54.53
50250;BME280;36133;42.522;27.456;2023-05-03T04:45:51;101757.53;;;17.41;54.53
50250;BME280;36133;42.522;27.456;2023-05-03T04:48:17;102038.19;;;18.74;55.42
50250;BME280;36133;42.522;27.456;2023-05-03T04:50:43;102060.75;;;18.96;55.28
50250;BME280;36133;42.522;27.456;2023-05-03T04:53:09;101990.56;;;19.42;53.46
50250;BME280;36133;42.522;27.456;2023-05-03T04:55:35;102007.88;;;18.89;55.42
50250;BME280;36133;42.522;27.456;2023-05-03T04:58:00;102019.56;;;18.17;57.13
50250;BME280;36133;42.522;27.456;2023-05-03T05:00:26;102051.09;;;18.13;57.49
50250;BME280;36133;42.522;27.456;2023-05-03T05:02:51;102062.56;;;17.54;57.71
50250;BME280;36133;42.522;27.456;2023-05-03T05:05:17;102072.09;;;18.80;56.07
50250;BME280;36133;42.522;27.456;2023-05-03T05:07:43;102082.19;;;18.99;54.63
50250;BME280;36133;42.522;27.456;2023-05-03T05:10:08;101951.81;;;17.93;55.02
50250;BME280;36133;42.522;27.456;2023-05-03T05:12:34;102098.81;;;19.38;54.48
50250;BME280;36133;42.522;27.456;2023-05-03T05:15:00;102095.19;;;19.90;53.77
50250;BME280;36133;42.522;27.456;2023-05-03T05:17:25;101940.56;;;18.55;53.07
50250;BME280;36133;42.522;27.456;2023-05-03T05:19:51;101826.53;;;17.90;54.07
50250;BME280;36133;42.522;27.456;2023-05-03T05:22:18;102098.00;;;19.64;53.58
50250;BME280;36133;42.522;27.456;2023-05-03T05:24:47;101832.22;;;18.48;52.96
50250;BME280;36133;42.522;27.456;2023-05-03T05:27:12;101965.34;;;19.07;53.35
50250;BME280;36133;42.522;27.456;2023-05-03T05:29:38;101827.75;;;18.53;52.37
50250;BME280;36133;42.522;27.456;2023-05-03T05:32:06;101971.47;;;18.95;53.40
50250;BME280;36133;42.522;27.456;2023-05-03T05:34:32;102020.53;;;18.90;54.77
50250;BME280;36133;42.522;27.456;2023-05-03T05:36:58;102061.56;;;19.10;54.93
50250;BME280;36133;42.522;27.456;2023-05-03T05:39:24;101867.31;;;18.90;52.62
50250;BME280;36133;42.522;27.456;2023-05-03T05:41:50;101734.94;;;17.74;53.75
50250;BME280;36133;42.522;27.456;2023-05-03T05:44:15;101535.00;;;16.86;52.48
50250;BME280;36133;42.522;27.456;2023-05-03T05:46:41;101695.78;;;17.14;53.55
50250;BME280;36133;42.522;27.456;2023-05-03T05:49:06;101923.25;;;17.95;54.74
50250;BME280;36133;42.522;27.456;2023-05-03T05:51:32;101594.41;;;16.97;51.80
50250;BME280;36133;42.522;27.456;2023-05-03T05:53:58;101674.16;;;17.12;52.47
50250;BME280;36133;42.522;27.456;2023-05-03T05:56:23;101921.19;;;17.08;56.04
50250;BME280;36133;42.522;27.456;2023-05-03T05:58:49;101570.16;;;15.37;54.51
50250;BME280;36133;42.522;27.456;2023-05-03T06:01:15;101620.13;;;16.68;52.88
50250;BME280;36133;42.522;27.456;2023-05-03T06:03:40;102125.97;;;19.72;52.39
50250;BME280;36133;42.522;27.456;2023-05-03T06:06:09;102077.38;;;20.06;51.57
50250;BME280;36133;42.522;27.456;2023-05-03T06:08:34;101898.69;;;18.81;50.97
50250;BME280;36133;42.522;27.456;2023-05-03T06:11:00;102108.31;;;19.28;52.97
50250;BME280;36133;42.522;27.456;2023-05-03T06:13:26;101597.59;;;15.98;53.02
50250;BME280;36133;42.522;27.456;2023-05-03T06:15:51;101945.38;;;18.47;52.17
50250;BME280;36133;42.522;27.456;2023-05-03T06:18:18;101570.31;;;16.39;51.19
50250;BME280;36133;42.522;27.456;2023-05-03T06:20:47;102120.28;;;19.74;52.48
50250;BME280;36133;42.522;27.456;2023-05-03T06:23:13;101895.09;;;18.81;51.22
50250;BME280;36133;42.522;27.456;2023-05-03T06:25:39;101931.88;;;19.69;49.11
50250;BME280;36133;42.522;27.456;2023-05-03T06:28:04;102142.63;;;20.48;49.84
50250;BME280;36133;42.522;27.456;2023-05-03T06:30:30;101979.94;;;20.41;47.85
50250;BME280;36133;42.522;27.456;2023-05-03T06:32:59;101672.34;;;18.95;46.24
50250;BME280;36133;42.522;27.456;2023-05-03T06:35:25;101885.97;;;19.65;47.45
50250;BME280;36133;42.522;27.456;2023-05-03T06:37:51;101623.38;;;18.35;47.30
50250;BME280;36133;42.522;27.456;2023-05-03T06:40:17;101852.72;;;20.17;46.32
50250;BME280;36133;42.522;27.456;2023-05-03T06:43:03;101656.06;;;19.88;44.83
50250;BME280;36133;42.522;27.456;2023-05-03T06:45:28;102041.59;;;22.72;43.24
50250;BME280;36133;42.522;27.456;2023-05-03T06:47:54;101779.72;;;20.41;44.81
50250;BME280;36133;42.522;27.456;2023-05-03T06:50:20;101724.03;;;19.10;46.54
50250;BME280;36133;42.522;27.456;2023-05-03T06:52:46;102165.41;;;22.78;45.36
50250;BME280;36133;42.522;27.456;2023-05-03T06:55:12;101806.56;;;20.94;44.20
50250;BME280;36133;42.522;27.456;2023-05-03T06:57:42;101695.97;;;20.75;43.37
50250;BME280;36133;42.522;27.456;2023-05-03T07:00:16;102161.41;;;22.44;46.07
50250;BME280;36133;42.522;27.456;2023-05-03T07:02:42;102171.75;;;22.12;46.44
50250;BME280;36133;42.522;27.456;2023-05-03T07:05:08;102190.25;;;22.72;45.07
50250;BME280;36133;42.522;27.456;2023-05-03T07:07:34;102133.50;;;21.68;46.39
50250;BME280;36133;42.522;27.456;2023-05-03T07:10:00;102220.03;;;22.27;46.58
50250;BME280;36133;42.522;27.456;2023-05-03T07:12:28;102221.34;;;22.24;46.35
50250;BME280;36133;42.522;27.456;2023-05-03T07:14:54;102198.03;;;23.47;43.58
50250;BME280;36133;42.522;27.456;2023-05-03T07:17:20;102123.56;;;23.00;43.18
50250;BME280;36133;42.522;27.456;2023-05-03T07:19:49;102033.97;;;22.32;43.29
50250;BME280;36133;42.522;27.456;2023-05-03T07:22:18;101864.59;;;20.11;45.66
50250;BME280;36133;42.522;27.456;2023-05-03T07:24:51;102166.50;;;23.19;43.35
50250;BME280;36133;42.522;27.456;2023-05-03T07:27:25;102057.84;;;23.03;41.67
50250;BME280;36133;42.522;27.456;2023-05-03T07:29:53;101890.25;;;21.47;43.10
50250;BME280;36133;42.522;27.456;2023-05-03T07:32:20;101629.13;;;21.00;41.44
50250;BME280;36133;42.522;27.456;2023-05-03T07:34:53;101842.66;;;22.06;41.30
50250;BME280;36133;42.522;27.456;2023-05-03T07:37:20;102028.59;;;24.41;39.08
50250;BME280;36133;42.522;27.456;2023-05-03T07:39:45;102140.16;;;26.08;37.77
50250;BME280;36133;42.522;27.456;2023-05-03T07:42:11;101812.25;;;26.11;34.73
50250;BME280;36133;42.522;27.456;2023-05-03T07:44:37;101925.03;;;24.39;37.84
50250;BME280;36133;42.522;27.456;2023-05-03T07:47:02;102139.16;;;27.54;34.20
50250;BME280;36133;42.522;27.456;2023-05-03T07:49:28;101985.97;;;27.37;32.62
50250;BME280;36133;42.522;27.456;2023-05-03T07:51:55;101837.16;;;27.73;30.06
50250;BME280;36133;42.522;27.456;2023-05-03T07:54:22;102062.34;;;29.80;30.49
50250;BME280;36133;42.522;27.456;2023-05-03T07:56:48;102178.31;;;30.25;29.72
50250;BME280;36133;42.522;27.456;2023-05-03T07:59:13;102179.38;;;27.89;32.91
50250;BME280;36133;42.522;27.456;2023-05-03T08:01:39;102194.78;;;28.12;33.27
50250;BME280;36133;42.522;27.456;2023-05-03T08:04:05;101920.44;;;25.17;35.26
50250;BME280;36133;42.522;27.456;2023-05-03T08:06:33;102210.06;;;26.64;35.43
50250;BME280;36133;42.522;27.456;2023-05-03T08:08:59;102033.25;;;26.02;34.83
50250;BME280;36133;42.522;27.456;2023-05-03T08:11:28;101724.28;;;21.36;38.47
50250;BME280;36133;42.522;27.456;2023-05-03T08:13:54;101683.28;;;22.11;37.52
50250;BME280;36133;42.522;27.456;2023-05-03T08:16:19;102082.66;;;25.33;36.65
50250;BME280;36133;42.522;27.456;2023-05-03T08:18:45;101935.66;;;24.47;35.77
50250;BME280;36133;42.522;27.456;2023-05-03T08:21:11;102202.84;;;25.64;36.15
50250;BME280;36133;42.522;27.456;2023-05-03T08:23:38;101954.56;;;25.27;35.45
50250;BME280;36133;42.522;27.456;2023-05-03T08:26:04;101974.25;;;26.87;nan
50250;BME280;36133;42.522;27.456;2023-05-03T08:28:32;102190.56;;;30.84;29.41
50250;BME280;36133;42.522;27.456;2023-05-03T08:30:58;102192.03;;;30.07;29.15
50250;BME280;36133;42.522;27.456;2023-05-03T08:33:24;102089.00;;;28.13;29.88
50250;BME280;36133;42.522;27.456;2023-05-03T08:35:49;102148.59;;;28.63;30.95
50250;BME280;36133;42.522;27.456;2023-05-03T08:38:15;102199.78;;;28.20;31.90
50250;BME280;36133;42.522;27.456;2023-05-03T08:40:42;102188.66;;;28.15;32.30
50250;BME280;36133;42.522;27.456;2023-05-03T08:43:09;102121.84;;;25.13;35.39
50250;BME280;36133;42.522;27.456;2023-05-03T08:45:37;102179.22;;;25.39;35.79
50250;BME280;36133;42.522;27.456;2023-05-03T08:48:03;102103.34;;;24.00;37.25
50250;BME280;36133;42.522;27.456;2023-05-03T08:50:32;102164.31;;;24.95;37.07
50250;BME280;36133;42.522;27.456;2023-05-03T08:53:07;102122.81;;;24.21;37.58
50250;BME280;36133;42.522;27.456;2023-05-03T08:55:32;101931.59;;;22.77;38.58
50250;BME280;36133;42.522;27.456;2023-05-03T08:58:05;102182.66;;;22.37;41.38
50250;BME280;36133;42.522;27.456;2023-05-03T09:00:35;101911.28;;;21.16;41.40
50250;BME280;36133;42.522;27.456;2023-05-03T09:03:03;101974.47;;;20.91;42.59
50250;BME280;36133;42.522;27.456;2023-05-03T09:05:30;101849.22;;;19.79;43.08
50250;BME280;36133;42.522;27.456;2023-05-03T09:10:30;102025.44;;;21.30;42.20
50250;BME280;36133;42.522;27.456;2023-05-03T09:13:01;101689.59;;;19.83;41.23
50250;BME280;36133;42.522;27.456;2023-05-03T09:15:30;101983.09;;;20.45;42.79
50250;BME280;36133;42.522;27.456;2023-05-03T09:18:25;102175.81;;;20.78;44.52
50250;BME280;36133;42.522;27.456;2023-05-03T09:20:51;102186.94;;;20.52;45.67
50250;BME280;36133;42.522;27.456;2023-05-03T09:25:50;101734.78;;;18.60;43.76
50250;BME280;36133;42.522;27.456;2023-05-03T09:28:16;102143.50;;;21.80;42.90
50250;BME280;36133;42.522;27.456;2023-05-03T09:30:43;102142.03;;;21.59;43.36
50250;BME280;36133;42.522;27.456;2023-05-03T09:33:09;101837.44;;;19.33;44.54
50250;BME280;36133;42.522;27.456;2023-05-03T09:35:59;101856.41;;;20.05;43.70
50250;BME280;36133;42.522;27.456;2023-05-03T09:38:29;101651.69;;;17.30;46.51
50250;BME280;36133;42.522;27.456;2023-05-03T09:40:55;101520.88;;;16.49;47.06
50250;BME280;36133;42.522;27.456;2023-05-03T09:43:22;101634.91;;;17.20;46.31
50250;BME280;36133;42.522;27.456;2023-05-03T09:45:47;101663.91;;;17.21;47.81
50250;BME280;36133;42.522;27.456;2023-05-03T09:48:13;101747.47;;;17.42;48.50
50250;BME280;36133;42.522;27.456;2023-05-03T09:50:41;101796.00;;;18.52;48.45
50250;BME280;36133;42.522;27.456;2023-05-03T09:53:08;101620.41;;;17.66;45.92
50250;BME280;36133;42.522;27.456;2023-05-03T09:55:42;101490.84;;;17.42;45.09
50250;BME280;36133;42.522;27.456;2023-05-03T09:58:08;101924.72;;;20.63;43.25
50250;BME280;36133;42.522;27.456;2023-05-03T10:00:40;102108.66;;;23.31;40.15
50250;BME280;36133;42.522;27.456;2023-05-03T10:03:17;101591.44;;;20.65;38.90
50250;BME280;36133;42.522;27.456;2023-05-03T10:05:48;102085.03;;;23.12;40.24
50250;BME280;36133;42.522;27.456;2023-05-03T10:10:51;101568.38;;;18.95;41.90
50250;BME280;36133;42.522;27.456;2023-05-03T10:13:20;101862.06;;;19.78;43.39
50250;BME280;36133;42.522;27.456;2023-05-03T10:16:02;101568.41;;;18.50;43.09
50250;BME280;36133;42.522;27.456;2023-05-03T10:18:31;101713.53;;;19.95;42.10
50250;BME280;36133;42.522;27.456;2023-05-03T10:21:08;102010.06;;;23.09;39.52
50250;BME280;36133;42.522;27.456;2023-05-03T10:24:15;102067.41;;;23.13;39.98
50250;BME280;36133;42.522;27.456;2023-05-03T10:26:45;101513.44;;;20.73;38.16
50250;BME280;36133;42.522;27.456;2023-05-03T10:29:44;102075.09;;;23.22;38.92
50250;BME280;36133;42.522;27.456;2023-05-03T10:32:33;101669.44;;;20.88;38.19
50250;BME280;36133;42.522;27.456;2023-05-03T10:35:17;101908.53;;;23.82;35.49
50250;BME280;36133;42.522;27.456;2023-05-03T10:37:44;101872.59;;;22.96;35.97
50250;BME280;36133;42.522;27.456;2023-05-03T10:40:14;102079.94;;;24.88;35.51
50250;BME280;36133;42.522;27.456;2023-05-03T10:42:51;101872.44;;;23.26;36.29
50250;BME280;36133;42.522;27.456;2023-05-03T10:45:25;102096.75;;;22.95;39.42
50250;BME280;36133;42.522;27.456;2023-05-03T10:50:48;101577.88;;;22.91;35.45
50250;BME280;36133;42.522;27.456;2023-05-03T10:53:34;101797.38;;;23.36;36.11
50250;BME280;36133;42.522;27.456;2023-05-03T10:56:08;101671.09;;;22.59;36.53
50250;BME280;36133;42.522;27.456;2023-05-03T10:58:45;101942.63;;;23.76;37.72
50250;BME280;36133;42.522;27.456;2023-05-03T11:01:16;101875.84;;;22.58;38.47
50250;BME280;36133;42.522;27.456;2023-05-03T11:03:53;101941.03;;;24.53;36.61
50250;BME280;36133;42.522;27.456;2023-05-03T11:06:32;101681.41;;;22.92;36.46
50250;BME280;36133;42.522;27.456;2023-05-03T11:08:59;101648.22;;;22.30;36.99
50250;BME280;36133;42.522;27.456;2023-05-03T11:11:25;102079.50;;;24.22;37.99
50250;BME280;36133;42.522;27.456;2023-05-03T11:13:51;102088.88;;;23.81;38.58
50250;BME280;36133;42.522;27.456;2023-05-03T11:16:17;101829.44;;;23.99;35.68
50250;BME280;36133;42.522;27.456;2023-05-03T11:18:44;101995.56;;;25.13;35.91
50250;BME280;36133;42.522;27.456;2023-05-03T11:21:11;101636.75;;;23.52;34.98
50250;BME280;36133;42.522;27.456;2023-05-03T11:23:37;101648.66;;;23.91;34.38
50250;BME280;36133;42.522;27.456;2023-05-03T11:26:09;101976.06;;;24.53;36.53
50250;BME280;36133;42.522;27.456;2023-05-03T11:28:39;101841.88;;;24.18;35.73
50250;BME280;36133;42.522;27.456;2023-05-03T11:31:05;102015.19;;;23.41;38.43
50250;BME280;36133;42.522;27.456;2023-05-03T11:33:32;102076.50;;;24.80;37.50
50250;BME280;36133;42.522;27.456;2023-05-03T11:36:05;101669.50;;;21.88;39.05
50250;BME280;36133;42.522;27.456;2023-05-03T11:38:33;101931.06;;;22.21;40.99
50250;BME280;36133;42.522;27.456;2023-05-03T11:41:00;101886.41;;;20.74;43.63
50250;BME280;36133;42.522;27.456;2023-05-03T11:43:39;102086.75;;;21.49;44.80
50250;BME280;36133;42.522;27.456;2023-05-03T11:46:05;102088.41;;;19.99;47.90
50250;BME280;36133;42.522;27.456;2023-05-03T11:48:31;101963.47;;;20.10;46.71
50250;BME280;36133;42.522;27.456;2023-05-03T11:50:57;102104.97;;;20.62;47.07
50250;BME280;36133;42.522;27.456;2023-05-03T11:53:24;102072.47;;;20.21;47.82
50250;BME280;36133;42.522;27.456;2023-05-03T11:55:52;102123.31;;;20.24;48.33
50250;BME280;36133;42.522;27.456;2023-05-03T11:58:24;101594.34;;;16.84;49.64
50250;BME280;36133;42.522;27.456;2023-05-03T12:00:52;101717.63;;;17.20;50.24
50250;BME280;36133;42.522;27.456;2023-05-03T12:03:31;101704.38;;;17.17;50.96
50250;BME280;36133;42.522;27.456;2023-05-03T12:05:57;101614.69;;;16.81;50.34
50250;BME280;36133;42.522;27.456;2023-05-03T12:08:28;101537.63;;;16.46;50.33
50250;BME280;36133;42.522;27.456;2023-05-03T12:10:57;101751.50;;;17.79;50.00
50250;BME280;36133;42.522;27.456;2023-05-03T12:13:30;101539.28;;;16.34;50.70
50250;BME280;36133;42.522;27.456;2023-05-03T12:15:59;101532.34;;;16.25;50.23
50250;BME280;36133;42.522;27.456;2023-05-03T12:18:45;101804.19;;;18.72;49.52
50250;BME280;36133;42.522;27.456;2023-05-03T12:21:13;101704.56;;;18.28;48.39
50250;BME280;36133;42.522;27.456;2023-05-03T12:23:42;101868.72;;;19.57;48.25
50250;BME280;36133;42.522;27.456;2023-05-03T12:26:08;102088.66;;;22.04;46.13
50250;BME280;36133;42.522;27.456;2023-05-03T12:28:33;101557.94;;;18.47;46.21
50250;BME280;36133;42.522;27.456;2023-05-03T12:31:05;101881.66;;;20.82;45.72
50250;BME280;36133;42.522;27.456;2023-05-03T12:33:31;101845.16;;;20.81;44.81
50250;BME280;36133;42.522;27.456;2023-05-03T12:36:04;101565.03;;;18.93;45.28
50250;BME280;36133;42.522;27.456;2023-05-03T12:38:29;101767.75;;;20.91;43.64
50250;BME280;36133;42.522;27.456;2023-05-03T12:40:55;102042.84;;;22.99;43.01
50250;BME280;36133;42.522;27.456;2023-05-03T12:43:22;101619.06;;;20.94;42.17
50250;BME280;36133;42.522;27.456;2023-05-03T12:45:59;101858.59;;;22.51;42.25
50250;BME280;36133;42.522;27.456;2023-05-03T12:48:28;102041.41;;;22.43;43.87
50250;BME280;36133;42.522;27.456;2023-05-03T12:50:59;101559.13;;;19.82;43.20
50250;BME280;36133;42.522;27.456;2023-05-03T12:53:25;101552.41;;;18.92;44.51
50250;BME280;36133;42.522;27.456;2023-05-03T12:55:51;101832.03;;;20.65;45.22
50250;BME280;36133;42.522;27.456;2023-05-03T12:58:21;102075.22;;;20.59;47.49
50250;BME280;36133;42.522;27.456;2023-05-03T13:00:47;101780.69;;;17.65;49.93
50250;BME280;36133;42.522;27.456;2023-05-03T13:03:13;101396.06;;;15.98;49.13